sensor_id;sensor_type;location;lat;lon;timestamp;P1;durP1;ratioP1;P2;durP2;ratioP2
68455;SDS011;55437;55.046;38.838;2023-12-20T00:00:14;5.60;;;1.70;;
68455;SDS011;55437;55.046;38.838;2023-12-20T00:02:40;5.03;;;1.67;;
68455;SDS011;55437;55.046;38.838;2023-12-20T00:05:10;3.63;;;1.50;;
68455;SDS011;55437;55.046;38.838;2023-12-20T00:07:36;5.07;;;2.70;;
68455;SDS011;55437;55.046;38.838;2023-12-20T00:10:01;4.35;;;1.92;;
68455;SDS011;55437;55.046;38.838;2023-12-20T00:12:29;5.72;;;3.00;;
68455;SDS011;55437;55.046;38.838;2023-12-20T00:14:54;7.03;;;1.98;;
68455;SDS011;55437;55.046;38.838;2023-12-20T00:17:20;5.18;;;2.15;;
68455;SDS011;55437;55.046;38.838;2023-12-20T00:19:46;4.97;;;1.70;;
68455;SDS011;55437;55.046;38.838;2023-12-20T00:22:12;4.47;;;2.03;;
68455;SDS011;55437;55.046;38.838;2023-12-20T00:24:38;5.68;;;2.33;;
68455;SDS011;55437;55.046;38.838;2023-12-20T00:27:04;3.95;;;1.52;;
68455;SDS011;55437;55.046;38.838;2023-12-20T00:29:30;5.60;;;2.78;;
68455;SDS011;55437;55.046;38.838;2023-12-20T00:31:56;5.28;;;3.00;;
68455;SDS011;55437;55.046;38.838;2023-12-20T00:34:22;6.25;;;2.08;;
68455;SDS011;55437;55.046;38.838;2023-12-20T00:36:47;4.88;;;2.80;;
68455;SDS011;55437;55.046;38.838;2023-12-20T00:39:13;5.68;;;2.15;;
68455;SDS011;55437;55.046;38.838;2023-12-20T00:41:39;4.50;;;1.92;;
68455;SDS011;55437;55.046;38.838;2023-12-20T00:44:05;4.07;;;1.88;;
68455;SDS011;55437;55.046;38.838;2023-12-20T00:46:31;4.15;;;1.55;;
68455;SDS011;55437;55.046;38.838;2023-12-20T00:48:57;4.30;;;1.75;;
68455;SDS011;55437;55.046;38.838;2023-12-20T00:51:23;4.93;;;2.25;;
68455;SDS011;55437;55.046;38.838;2023-12-20T00:53:49;3.92;;;1.48;;
68455;SDS011;55437;55.046;38.838;2023-12-20T00:56:15;4.72;;;1.80;;
68455;SDS011;55437;55.046;38.838;2023-12-20T00:58:42;5.05;;;2.08;;
68455;SDS011;55437;55.046;38.838;2023-12-20T01:01:07;6.32;;;2.65;;
68455;SDS011;55437;55.046;38.838;2023-12-20T01:03:33;3.95;;;1.77;;
68455;SDS011;55437;55.046;38.838;2023-12-20T01:06:00;5.90;;;2.22;;
68455;SDS011;55437;55.046;38.838;2023-12-20T01:08:26;5.97;;;2.67;;
68455;SDS011;55437;55.046;38.838;2023-12-20T01:10:51;4.38;;;1.88;;
68455;SDS011;55437;55.046;38.838;2023-12-20T01:13:17;5.13;;;2.78;;
68455;SDS011;55437;55.046;38.838;2023-12-20T01:15:44;5.63;;;2.25;;
68455;SDS011;55437;55.046;38.838;2023-12-20T01:18:09;5.50;;;1.80;;
68455;SDS011;55437;55.046;38.838;2023-12-20T01:20:35;4.82;;;1.85;;
68455;SDS011;55437;55.046;38.838;2023-12-20T01:23:01;4.93;;;1.95;;
68455;SDS011;55437;55.046;38.838;2023-12-20T01:25:27;5.97;;;4.35;;
68455;SDS011;55437;55.046;38.838;2023-12-20T01:27:53;4.57;;;1.65;;
68455;SDS011;55437;55.046;38.838;2023-12-20T01:30:19;4.97;;;2.03;;
68455;SDS011;55437;55.046;38.838;2023-12-20T01:32:44;5.15;;;1.90;;
68455;SDS011;55437;55.046;38.838;2023-12-20T01:35:10;4.65;;;1.77;;
68455;SDS011;55437;55.046;38.838;2023-12-20T01:37:37;5.38;;;2.08;;
68455;SDS011;55437;55.046;38.838;2023-12-20T01:40:03;4.47;;;1.80;;
68455;SDS011;55437;55.046;38.838;2023-12-20T01:42:30;5.25;;;2.35;;
68455;SDS011;55437;55.046;38.838;2023-12-20T01:44:56;4.22;;;1.95;;
68455;SDS011;55437;55.046;38.838;2023-12-20T01:47:21;4.88;;;1.77;;
68455;SDS011;55437;55.046;38.838;2023-12-20T01:50:06;5.55;;;2.72;;
68455;SDS011;55437;55.046;38.838;2023-12-20T01:52:33;7.28;;;2.08;;
68455;SDS011;55437;55.046;38.838;2023-12-20T01:55:00;4.78;;;1.90;;
68455;SDS011;55437;55.046;38.838;2023-12-20T01:57:30;4.78;;;1.77;;
68455;SDS011;55437;55.046;38.838;2023-12-20T01:59:56;5.15;;;1.50;;
68455;SDS011;55437;55.046;38.838;2023-12-20T02:02:22;4.63;;;2.28;;
68455;SDS011;55437;55.046;38.838;2023-12-20T02:04:48;4.95;;;1.88;;
68455;SDS011;55437;55.046;38.838;2023-12-20T02:07:16;5.00;;;1.77;;
68455;SDS011;55437;55.046;38.838;2023-12-20T02:09:43;4.65;;;1.75;;
68455;SDS011;55437;55.046;38.838;2023-12-20T02:12:09;5.72;;;1.80;;
68455;SDS011;55437;55.046;38.838;2023-12-20T02:14:35;5.28;;;2.00;;
68455;SDS011;55437;55.046;38.838;2023-12-20T02:17:01;6.05;;;2.42;;
68455;SDS011;55437;55.046;38.838;2023-12-20T02:19:27;5.50;;;2.67;;
68455;SDS011;55437;55.046;38.838;2023-12-20T02:22:04;4.78;;;2.03;;
68455;SDS011;55437;55.046;38.838;2023-12-20T02:24:32;5.75;;;3.13;;
68455;SDS011;55437;55.046;38.838;2023-12-20T02:26:57;5.30;;;1.90;;
68455;SDS011;55437;55.046;38.838;2023-12-20T02:29:24;6.72;;;2.28;;
68455;SDS011;55437;55.046;38.838;2023-12-20T02:31:50;5.88;;;2.13;;
68455;SDS011;55437;55.046;38.838;2023-12-20T02:34:16;6.05;;;2.80;;
68455;SDS011;55437;55.046;38.838;2023-12-20T02:36:41;4.60;;;1.85;;
68455;SDS011;55437;55.046;38.838;2023-12-20T02:39:07;6.38;;;2.15;;
68455;SDS011;55437;55.046;38.838;2023-12-20T02:41:33;7.40;;;3.00;;
68455;SDS011;55437;55.046;38.838;2023-12-20T02:43:59;4.75;;;1.67;;
68455;SDS011;55437;55.046;38.838;2023-12-20T02:46:25;7.03;;;2.25;;
68455;SDS011;55437;55.046;38.838;2023-12-20T02:48:51;6.57;;;2.80;;
68455;SDS011;55437;55.046;38.838;2023-12-20T02:51:17;5.40;;;2.03;;
68455;SDS011;55437;55.046;38.838;2023-12-20T02:53:43;5.90;;;2.22;;
68455;SDS011;55437;55.046;38.838;2023-12-20T02:56:08;4.70;;;1.77;;
68455;SDS011;55437;55.046;38.838;2023-12-20T02:58:35;6.30;;;2.00;;
68455;SDS011;55437;55.046;38.838;2023-12-20T03:01:00;5.22;;;1.75;;
68455;SDS011;55437;55.046;38.838;2023-12-20T03:03:26;6.10;;;1.95;;
68455;SDS011;55437;55.046;38.838;2023-12-20T03:05:52;6.32;;;2.00;;
68455;SDS011;55437;55.046;38.838;2023-12-20T03:08:18;5.72;;;2.15;;
68455;SDS011;55437;55.046;38.838;2023-12-20T03:10:44;5.40;;;2.35;;
68455;SDS011;55437;55.046;38.838;2023-12-20T03:13:10;6.32;;;2.50;;
68455;SDS011;55437;55.046;38.838;2023-12-20T03:15:36;6.47;;;2.00;;
68455;SDS011;55437;55.046;38.838;2023-12-20T03:18:02;5.97;;;2.35;;
68455;SDS011;55437;55.046;38.838;2023-12-20T03:20:28;6.07;;;2.40;;
68455;SDS011;55437;55.046;38.838;2023-12-20T03:23:17;7.50;;;2.90;;
68455;SDS011;55437;55.046;38.838;2023-12-20T03:25:43;5.50;;;2.03;;
68455;SDS011;55437;55.046;38.838;2023-12-20T03:28:09;6.50;;;2.65;;
68455;SDS011;55437;55.046;38.838;2023-12-20T03:30:35;6.28;;;2.88;;
68455;SDS011;55437;55.046;38.838;2023-12-20T03:33:00;7.68;;;2.58;;
68455;SDS011;55437;55.046;38.838;2023-12-20T03:35:26;6.32;;;2.28;;
68455;SDS011;55437;55.046;38.838;2023-12-20T03:37:52;5.80;;;1.98;;
68455;SDS011;55437;55.046;38.838;2023-12-20T03:40:18;6.85;;;2.45;;
68455;SDS011;55437;55.046;38.838;2023-12-20T03:42:44;6.20;;;2.20;;
68455;SDS011;55437;55.046;38.838;2023-12-20T03:45:10;7.80;;;3.85;;
68455;SDS011;55437;55.046;38.838;2023-12-20T03:47:36;5.85;;;2.30;;
68455;SDS011;55437;55.046;38.838;2023-12-20T03:50:02;5.40;;;2.38;;
68455;SDS011;55437;55.046;38.838;2023-12-20T03:52:29;5.47;;;1.80;;
68455;SDS011;55437;55.046;38.838;2023-12-20T03:54:54;7.18;;;2.15;;
68455;SDS011;55437;55.046;38.838;2023-12-20T03:57:20;6.35;;;2.38;;
68455;SDS011;55437;55.046;38.838;2023-12-20T03:59:46;6.38;;;2.90;;
68455;SDS011;55437;55.046;38.838;2023-12-20T04:02:12;5.30;;;2.17;;
68455;SDS011;55437;55.046;38.838;2023-12-20T04:04:38;6.03;;;2.50;;
68455;SDS011;55437;55.046;38.838;2023-12-20T04:07:04;5.82;;;2.15;;
68455;SDS011;55437;55.046;38.838;2023-12-20T04:09:30;5.53;;;2.25;;
68455;SDS011;55437;55.046;38.838;2023-12-20T04:11:56;6.13;;;2.28;;
68455;SDS011;55437;55.046;38.838;2023-12-20T04:14:22;7.35;;;3.55;;
68455;SDS011;55437;55.046;38.838;2023-12-20T04:16:48;8.00;;;2.50;;
68455;SDS011;55437;55.046;38.838;2023-12-20T04:19:13;7.78;;;2.95;;
68455;SDS011;55437;55.046;38.838;2023-12-20T04:21:40;6.15;;;2.78;;
68455;SDS011;55437;55.046;38.838;2023-12-20T04:24:06;8.43;;;3.08;;
68455;SDS011;55437;55.046;38.838;2023-12-20T04:26:32;7.78;;;3.08;;
68455;SDS011;55437;55.046;38.838;2023-12-20T04:28:58;8.18;;;3.70;;
68455;SDS011;55437;55.046;38.838;2023-12-20T04:31:24;6.70;;;2.92;;
68455;SDS011;55437;55.046;38.838;2023-12-20T04:33:50;5.85;;;2.40;;
68455;SDS011;55437;55.046;38.838;2023-12-20T04:36:16;9.93;;;3.47;;
68455;SDS011;55437;55.046;38.838;2023-12-20T04:38:42;7.40;;;2.90;;
68455;SDS011;55437;55.046;38.838;2023-12-20T04:41:08;7.97;;;4.60;;
68455;SDS011;55437;55.046;38.838;2023-12-20T04:43:34;7.88;;;4.28;;
68455;SDS011;55437;55.046;38.838;2023-12-20T04:46:00;9.23;;;3.58;;
68455;SDS011;55437;55.046;38.838;2023-12-20T04:48:26;7.95;;;3.67;;
68455;SDS011;55437;55.046;38.838;2023-12-20T04:51:11;6.57;;;3.00;;
68455;SDS011;55437;55.046;38.838;2023-12-20T04:53:37;6.97;;;2.70;;
68455;SDS011;55437;55.046;38.838;2023-12-20T04:56:03;9.43;;;3.67;;
68455;SDS011;55437;55.046;38.838;2023-12-20T04:58:29;7.80;;;2.90;;
68455;SDS011;55437;55.046;38.838;2023-12-20T05:00:55;7.45;;;2.67;;
68455;SDS011;55437;55.046;38.838;2023-12-20T05:03:21;6.63;;;2.55;;
68455;SDS011;55437;55.046;38.838;2023-12-20T05:05:46;6.90;;;3.08;;
68455;SDS011;55437;55.046;38.838;2023-12-20T05:08:12;8.55;;;3.20;;
68455;SDS011;55437;55.046;38.838;2023-12-20T05:10:38;7.13;;;2.53;;
68455;SDS011;55437;55.046;38.838;2023-12-20T05:13:05;7.90;;;3.95;;
68455;SDS011;55437;55.046;38.838;2023-12-20T05:15:31;7.43;;;3.30;;
68455;SDS011;55437;55.046;38.838;2023-12-20T05:17:57;8.20;;;3.60;;
68455;SDS011;55437;55.046;38.838;2023-12-20T05:20:23;8.50;;;3.00;;
68455;SDS011;55437;55.046;38.838;2023-12-20T05:22:49;9.20;;;3.55;;
68455;SDS011;55437;55.046;38.838;2023-12-20T05:25:15;7.90;;;3.22;;
68455;SDS011;55437;55.046;38.838;2023-12-20T05:27:41;9.60;;;3.60;;
68455;SDS011;55437;55.046;38.838;2023-12-20T05:30:07;7.25;;;2.92;;
68455;SDS011;55437;55.046;38.838;2023-12-20T05:32:33;7.32;;;3.90;;
68455;SDS011;55437;55.046;38.838;2023-12-20T05:35:00;9.07;;;2.70;;
68455;SDS011;55437;55.046;38.838;2023-12-20T05:37:25;7.75;;;3.22;;
68455;SDS011;55437;55.046;38.838;2023-12-20T05:39:51;8.38;;;2.50;;
68455;SDS011;55437;55.046;38.838;2023-12-20T05:42:17;6.80;;;2.40;;
68455;SDS011;55437;55.046;38.838;2023-12-20T05:44:43;7.20;;;2.90;;
68455;SDS011;55437;55.046;38.838;2023-12-20T05:47:09;9.30;;;3.42;;
68455;SDS011;55437;55.046;38.838;2023-12-20T05:49:35;8.48;;;4.07;;
68455;SDS011;55437;55.046;38.838;2023-12-20T05:52:01;7.30;;;3.95;;
68455;SDS011;55437;55.046;38.838;2023-12-20T05:54:26;7.50;;;3.45;;
68455;SDS011;55437;55.046;38.838;2023-12-20T05:56:53;7.72;;;3.15;;
68455;SDS011;55437;55.046;38.838;2023-12-20T05:59:19;8.20;;;3.17;;
68455;SDS011;55437;55.046;38.838;2023-12-20T06:01:45;10.93;;;3.53;;
68455;SDS011;55437;55.046;38.838;2023-12-20T06:04:11;6.93;;;3.20;;
68455;SDS011;55437;55.046;38.838;2023-12-20T06:06:43;6.93;;;2.92;;
68455;SDS011;55437;55.046;38.838;2023-12-20T06:09:10;8.38;;;3.10;;
68455;SDS011;55437;55.046;38.838;2023-12-20T06:11:36;8.52;;;2.80;;
68455;SDS011;55437;55.046;38.838;2023-12-20T06:14:03;8.77;;;3.28;;
68455;SDS011;55437;55.046;38.838;2023-12-20T06:16:29;9.13;;;3.15;;
68455;SDS011;55437;55.046;38.838;2023-12-20T06:18:54;8.45;;;3.63;;
68455;SDS011;55437;55.046;38.838;2023-12-20T06:21:20;10.20;;;3.47;;
68455;SDS011;55437;55.046;38.838;2023-12-20T06:23:46;8.38;;;3.45;;
68455;SDS011;55437;55.046;38.838;2023-12-20T06:26:12;8.57;;;3.92;;
68455;SDS011;55437;55.046;38.838;2023-12-20T06:28:38;8.77;;;3.20;;
68455;SDS011;55437;55.046;38.838;2023-12-20T06:31:04;9.48;;;5.68;;
68455;SDS011;55437;55.046;38.838;2023-12-20T06:35:59;9.00;;;3.30;;
68455;SDS011;55437;55.046;38.838;2023-12-20T06:38:26;7.28;;;3.10;;
68455;SDS011;55437;55.046;38.838;2023-12-20T06:40:52;7.15;;;2.63;;
68455;SDS011;55437;55.046;38.838;2023-12-20T06:43:18;8.20;;;3.47;;
68455;SDS011;55437;55.046;38.838;2023-12-20T06:45:43;9.57;;;3.67;;
68455;SDS011;55437;55.046;38.838;2023-12-20T06:48:09;8.98;;;4.03;;
68455;SDS011;55437;55.046;38.838;2023-12-20T06:50:37;7.63;;;3.40;;
68455;SDS011;55437;55.046;38.838;2023-12-20T06:53:05;7.70;;;3.53;;
68455;SDS011;55437;55.046;38.838;2023-12-20T06:55:33;8.45;;;3.47;;
68455;SDS011;55437;55.046;38.838;2023-12-20T06:58:01;7.70;;;3.00;;
68455;SDS011;55437;55.046;38.838;2023-12-20T07:00:27;6.47;;;3.13;;
68455;SDS011;55437;55.046;38.838;2023-12-20T07:02:53;7.90;;;3.30;;
68455;SDS011;55437;55.046;38.838;2023-12-20T07:05:19;8.02;;;3.35;;
68455;SDS011;55437;55.046;38.838;2023-12-20T07:07:45;7.40;;;3.05;;
68455;SDS011;55437;55.046;38.838;2023-12-20T07:10:12;7.80;;;3.30;;
68455;SDS011;55437;55.046;38.838;2023-12-20T07:12:39;6.63;;;2.38;;
68455;SDS011;55437;55.046;38.838;2023-12-20T07:15:05;8.93;;;3.25;;
68455;SDS011;55437;55.046;38.838;2023-12-20T07:17:32;6.65;;;3.10;;
68455;SDS011;55437;55.046;38.838;2023-12-20T07:19:59;9.85;;;3.13;;
68455;SDS011;55437;55.046;38.838;2023-12-20T07:22:30;7.38;;;2.90;;
68455;SDS011;55437;55.046;38.838;2023-12-20T07:24:59;7.10;;;2.85;;
68455;SDS011;55437;55.046;38.838;2023-12-20T07:27:26;7.85;;;3.25;;
68455;SDS011;55437;55.046;38.838;2023-12-20T07:29:52;7.65;;;5.20;;
68455;SDS011;55437;55.046;38.838;2023-12-20T07:32:18;6.43;;;2.60;;
68455;SDS011;55437;55.046;38.838;2023-12-20T07:34:44;6.88;;;3.65;;
68455;SDS011;55437;55.046;38.838;2023-12-20T07:37:11;6.95;;;2.80;;
68455;SDS011;55437;55.046;38.838;2023-12-20T07:39:39;8.88;;;4.28;;
68455;SDS011;55437;55.046;38.838;2023-12-20T07:42:06;7.30;;;3.72;;
68455;SDS011;55437;55.046;38.838;2023-12-20T07:44:33;7.63;;;2.70;;
68455;SDS011;55437;55.046;38.838;2023-12-20T07:46:59;7.70;;;4.45;;
68455;SDS011;55437;55.046;38.838;2023-12-20T07:49:26;6.60;;;2.30;;
68455;SDS011;55437;55.046;38.838;2023-12-20T07:51:52;7.32;;;3.60;;
68455;SDS011;55437;55.046;38.838;2023-12-20T07:54:18;6.43;;;2.45;;
68455;SDS011;55437;55.046;38.838;2023-12-20T07:56:45;6.78;;;3.10;;
68455;SDS011;55437;55.046;38.838;2023-12-20T07:59:13;7.32;;;3.00;;
68455;SDS011;55437;55.046;38.838;2023-12-20T08:01:39;7.40;;;4.10;;
68455;SDS011;55437;55.046;38.838;2023-12-20T08:04:06;6.88;;;3.85;;
68455;SDS011;55437;55.046;38.838;2023-12-20T08:06:31;7.72;;;2.70;;
68455;SDS011;55437;55.046;38.838;2023-12-20T08:08:57;7.00;;;2.33;;
68455;SDS011;55437;55.046;38.838;2023-12-20T08:11:23;7.72;;;3.15;;
68455;SDS011;55437;55.046;38.838;2023-12-20T08:13:49;6.50;;;2.65;;
68455;SDS011;55437;55.046;38.838;2023-12-20T08:16:15;6.70;;;2.58;;
68455;SDS011;55437;55.046;38.838;2023-12-20T08:18:43;6.72;;;2.80;;
68455;SDS011;55437;55.046;38.838;2023-12-20T08:21:09;7.57;;;2.78;;
68455;SDS011;55437;55.046;38.838;2023-12-20T08:23:35;6.32;;;2.88;;
68455;SDS011;55437;55.046;38.838;2023-12-20T08:26:05;6.88;;;2.33;;
68455;SDS011;55437;55.046;38.838;2023-12-20T08:28:32;7.03;;;3.05;;
68455;SDS011;55437;55.046;38.838;2023-12-20T08:30:58;7.20;;;3.15;;
68455;SDS011;55437;55.046;38.838;2023-12-20T08:33:24;6.57;;;2.33;;
68455;SDS011;55437;55.046;38.838;2023-12-20T08:35:51;7.43;;;2.88;;
68455;SDS011;55437;55.046;38.838;2023-12-20T08:38:17;6.68;;;2.67;;
68455;SDS011;55437;55.046;38.838;2023-12-20T08:40:43;6.40;;;2.85;;
68455;SDS011;55437;55.046;38.838;2023-12-20T08:43:10;6.60;;;2.75;;
68455;SDS011;55437;55.046;38.838;2023-12-20T08:45:36;8.02;;;3.10;;
68455;SDS011;55437;55.046;38.838;2023-12-20T08:48:02;6.03;;;3.17;;
68455;SDS011;55437;55.046;38.838;2023-12-20T08:50:28;7.25;;;2.47;;
68455;SDS011;55437;55.046;38.838;2023-12-20T08:52:55;7.45;;;2.75;;
68455;SDS011;55437;55.046;38.838;2023-12-20T08:55:21;8.50;;;2.92;;
68455;SDS011;55437;55.046;38.838;2023-12-20T08:57:47;7.30;;;3.03;;
68455;SDS011;55437;55.046;38.838;2023-12-20T09:00:13;6.78;;;2.65;;
68455;SDS011;55437;55.046;38.838;2023-12-20T09:02:39;8.05;;;3.28;;
68455;SDS011;55437;55.046;38.838;2023-12-20T09:05:05;7.70;;;3.22;;
68455;SDS011;55437;55.046;38.838;2023-12-20T09:07:31;6.78;;;2.72;;
68455;SDS011;55437;55.046;38.838;2023-12-20T09:09:58;7.68;;;3.10;;
68455;SDS011;55437;55.046;38.838;2023-12-20T09:12:24;8.20;;;2.70;;
68455;SDS011;55437;55.046;38.838;2023-12-20T09:14:51;7.00;;;2.97;;
68455;SDS011;55437;55.046;38.838;2023-12-20T09:17:17;9.23;;;3.05;;
68455;SDS011;55437;55.046;38.838;2023-12-20T09:19:44;7.63;;;2.88;;
68455;SDS011;55437;55.046;38.838;2023-12-20T09:22:12;8.02;;;3.75;;
68455;SDS011;55437;55.046;38.838;2023-12-20T09:24:39;9.52;;;3.70;;
68455;SDS011;55437;55.046;38.838;2023-12-20T09:27:05;11.13;;;4.10;;
68455;SDS011;55437;55.046;38.838;2023-12-20T09:29:32;9.13;;;4.22;;
68455;SDS011;55437;55.046;38.838;2023-12-20T09:31:58;8.93;;;4.00;;
68455;SDS011;55437;55.046;38.838;2023-12-20T09:34:24;8.93;;;3.92;;
68455;SDS011;55437;55.046;38.838;2023-12-20T09:36:51;10.00;;;5.68;;
68455;SDS011;55437;55.046;38.838;2023-12-20T09:39:18;8.23;;;3.88;;
68455;SDS011;55437;55.046;38.838;2023-12-20T09:41:49;8.75;;;4.07;;
68455;SDS011;55437;55.046;38.838;2023-12-20T09:44:23;7.60;;;3.33;;
68455;SDS011;55437;55.046;38.838;2023-12-20T09:46:49;9.45;;;3.85;;
68455;SDS011;55437;55.046;38.838;2023-12-20T09:49:18;7.72;;;3.45;;
68455;SDS011;55437;55.046;38.838;2023-12-20T09:51:46;8.43;;;3.60;;
68455;SDS011;55437;55.046;38.838;2023-12-20T09:54:14;9.63;;;4.70;;
68455;SDS011;55437;55.046;38.838;2023-12-20T09:56:42;7.95;;;3.47;;
68455;SDS011;55437;55.046;38.838;2023-12-20T09:59:08;9.45;;;3.20;;
68455;SDS011;55437;55.046;38.838;2023-12-20T10:01:35;8.60;;;3.78;;
68455;SDS011;55437;55.046;38.838;2023-12-20T10:04:03;7.22;;;3.05;;
68455;SDS011;55437;55.046;38.838;2023-12-20T10:06:41;8.18;;;3.40;;
68455;SDS011;55437;55.046;38.838;2023-12-20T10:09:09;8.45;;;3.65;;
68455;SDS011;55437;55.046;38.838;2023-12-20T10:11:55;8.00;;;3.03;;
68455;SDS011;55437;55.046;38.838;2023-12-20T10:14:22;7.03;;;3.22;;
68455;SDS011;55437;55.046;38.838;2023-12-20T10:16:49;8.30;;;4.05;;
68455;SDS011;55437;55.046;38.838;2023-12-20T10:19:19;8.13;;;3.97;;
68455;SDS011;55437;55.046;38.838;2023-12-20T10:21:45;8.73;;;3.80;;
68455;SDS011;55437;55.046;38.838;2023-12-20T10:24:16;9.23;;;3.30;;
68455;SDS011;55437;55.046;38.838;2023-12-20T10:26:43;6.82;;;3.10;;
68455;SDS011;55437;55.046;38.838;2023-12-20T10:29:09;8.57;;;3.53;;
68455;SDS011;55437;55.046;38.838;2023-12-20T10:31:36;7.68;;;3.22;;
68455;SDS011;55437;55.046;38.838;2023-12-20T10:34:04;9.43;;;4.40;;
68455;SDS011;55437;55.046;38.838;2023-12-20T10:36:31;8.75;;;3.80;;
68455;SDS011;55437;55.046;38.838;2023-12-20T10:38:58;9.60;;;4.78;;
68455;SDS011;55437;55.046;38.838;2023-12-20T10:41:26;9.88;;;3.47;;
68455;SDS011;55437;55.046;38.838;2023-12-20T10:43:54;8.65;;;3.75;;
68455;SDS011;55437;55.046;38.838;2023-12-20T10:46:33;9.73;;;5.20;;
68455;SDS011;55437;55.046;38.838;2023-12-20T10:49:03;15.25;;;7.22;;
68455;SDS011;55437;55.046;38.838;2023-12-20T10:51:31;9.68;;;4.60;;
68455;SDS011;55437;55.046;38.838;2023-12-20T10:53:57;9.20;;;4.13;;
68455;SDS011;55437;55.046;38.838;2023-12-20T10:56:23;9.35;;;4.22;;
68455;SDS011;55437;55.046;38.838;2023-12-20T10:58:50;9.68;;;4.32;;
68455;SDS011;55437;55.046;38.838;2023-12-20T11:01:17;9.77;;;3.88;;
68455;SDS011;55437;55.046;38.838;2023-12-20T11:03:51;10.15;;;3.70;;
68455;SDS011;55437;55.046;38.838;2023-12-20T11:06:36;9.23;;;3.92;;
68455;SDS011;55437;55.046;38.838;2023-12-20T11:09:25;8.05;;;3.42;;
68455;SDS011;55437;55.046;38.838;2023-12-20T11:14:52;8.25;;;3.38;;
68455;SDS011;55437;55.046;38.838;2023-12-20T11:17:21;9.43;;;3.72;;
68455;SDS011;55437;55.046;38.838;2023-12-20T11:22:23;9.15;;;3.70;;
68455;SDS011;55437;55.046;38.838;2023-12-20T11:24:51;7.80;;;3.60;;
68455;SDS011;55437;55.046;38.838;2023-12-20T11:27:18;7.80;;;3.42;;
68455;SDS011;55437;55.046;38.838;2023-12-20T11:29:51;8.90;;;5.18;;
68455;SDS011;55437;55.046;38.838;2023-12-20T11:34:51;8.20;;;3.50;;
68455;SDS011;55437;55.046;38.838;2023-12-20T11:37:20;10.95;;;3.47;;
68455;SDS011;55437;55.046;38.838;2023-12-20T11:39:53;8.02;;;3.42;;
68455;SDS011;55437;55.046;38.838;2023-12-20T11:42:26;8.85;;;3.55;;
68455;SDS011;55437;55.046;38.838;2023-12-20T11:44:52;9.60;;;3.63;;
68455;SDS011;55437;55.046;38.838;2023-12-20T11:47:19;9.10;;;4.00;;
68455;SDS011;55437;55.046;38.838;2023-12-20T11:49:48;7.68;;;3.55;;
68455;SDS011;55437;55.046;38.838;2023-12-20T11:52:14;8.48;;;3.55;;
68455;SDS011;55437;55.046;38.838;2023-12-20T11:54:40;9.13;;;3.75;;
68455;SDS011;55437;55.046;38.838;2023-12-20T11:57:07;10.15;;;3.50;;
68455;SDS011;55437;55.046;38.838;2023-12-20T11:59:33;9.38;;;3.92;;
68455;SDS011;55437;55.046;38.838;2023-12-20T12:01:59;9.30;;;3.65;;
68455;SDS011;55437;55.046;38.838;2023-12-20T12:04:26;8.02;;;3.78;;
68455;SDS011;55437;55.046;38.838;2023-12-20T12:06:53;7.65;;;4.22;;
68455;SDS011;55437;55.046;38.838;2023-12-20T12:09:20;7.88;;;3.60;;
68455;SDS011;55437;55.046;38.838;2023-12-20T12:11:46;7.90;;;3.40;;
68455;SDS011;55437;55.046;38.838;2023-12-20T12:14:12;9.20;;;3.70;;
68455;SDS011;55437;55.046;38.838;2023-12-20T12:16:38;7.38;;;3.28;;
68455;SDS011;55437;55.046;38.838;2023-12-20T12:19:04;8.13;;;3.40;;
68455;SDS011;55437;55.046;38.838;2023-12-20T12:21:30;9.15;;;4.68;;
68455;SDS011;55437;55.046;38.838;2023-12-20T12:24:09;7.47;;;3.08;;
68455;SDS011;55437;55.046;38.838;2023-12-20T12:26:38;7.80;;;3.47;;
68455;SDS011;55437;55.046;38.838;2023-12-20T12:29:08;6.72;;;2.75;;
68455;SDS011;55437;55.046;38.838;2023-12-20T12:34:01;7.75;;;3.10;;
68455;SDS011;55437;55.046;38.838;2023-12-20T12:36:28;7.20;;;3.05;;
68455;SDS011;55437;55.046;38.838;2023-12-20T12:38:56;8.73;;;3.53;;
68455;SDS011;55437;55.046;38.838;2023-12-20T12:41:24;6.97;;;3.13;;
68455;SDS011;55437;55.046;38.838;2023-12-20T12:43:50;6.88;;;2.75;;
68455;SDS011;55437;55.046;38.838;2023-12-20T12:46:16;6.57;;;2.92;;
68455;SDS011;55437;55.046;38.838;2023-12-20T12:48:43;7.45;;;2.40;;
68455;SDS011;55437;55.046;38.838;2023-12-20T12:51:10;6.50;;;2.78;;
68455;SDS011;55437;55.046;38.838;2023-12-20T12:53:38;5.93;;;2.72;;
68455;SDS011;55437;55.046;38.838;2023-12-20T12:56:05;7.53;;;3.10;;
68455;SDS011;55437;55.046;38.838;2023-12-20T12:58:32;7.00;;;4.00;;
68455;SDS011;55437;55.046;38.838;2023-12-20T13:00:58;6.78;;;2.92;;
68455;SDS011;55437;55.046;38.838;2023-12-20T13:03:24;7.47;;;2.85;;
68455;SDS011;55437;55.046;38.838;2023-12-20T13:05:50;6.60;;;2.85;;
68455;SDS011;55437;55.046;38.838;2023-12-20T13:08:16;6.78;;;3.05;;
68455;SDS011;55437;55.046;38.838;2023-12-20T13:10:42;7.32;;;2.75;;
68455;SDS011;55437;55.046;38.838;2023-12-20T13:13:09;8.30;;;2.78;;
68455;SDS011;55437;55.046;38.838;2023-12-20T13:15:35;7.05;;;2.70;;
68455;SDS011;55437;55.046;38.838;2023-12-20T13:18:01;6.35;;;2.85;;
68455;SDS011;55437;55.046;38.838;2023-12-20T13:20:27;6.43;;;2.53;;
68455;SDS011;55437;55.046;38.838;2023-12-20T13:22:53;6.45;;;2.53;;
68455;SDS011;55437;55.046;38.838;2023-12-20T13:25:19;7.20;;;3.67;;
68455;SDS011;55437;55.046;38.838;2023-12-20T13:27:45;6.80;;;3.05;;
68455;SDS011;55437;55.046;38.838;2023-12-20T13:30:11;6.93;;;3.00;;
68455;SDS011;55437;55.046;38.838;2023-12-20T13:32:38;7.18;;;4.13;;
68455;SDS011;55437;55.046;38.838;2023-12-20T13:35:04;6.22;;;2.42;;
68455;SDS011;55437;55.046;38.838;2023-12-20T13:37:30;7.45;;;3.15;;
68455;SDS011;55437;55.046;38.838;2023-12-20T13:39:57;6.63;;;3.00;;
68455;SDS011;55437;55.046;38.838;2023-12-20T13:42:23;6.22;;;2.85;;
68455;SDS011;55437;55.046;38.838;2023-12-20T13:44:49;6.57;;;3.40;;
68455;SDS011;55437;55.046;38.838;2023-12-20T13:47:14;7.53;;;4.28;;
68455;SDS011;55437;55.046;38.838;2023-12-20T13:49:40;5.70;;;2.53;;
68455;SDS011;55437;55.046;38.838;2023-12-20T13:52:06;5.53;;;2.33;;
68455;SDS011;55437;55.046;38.838;2023-12-20T13:54:32;7.95;;;3.80;;
68455;SDS011;55437;55.046;38.838;2023-12-20T13:56:58;6.82;;;2.55;;
68455;SDS011;55437;55.046;38.838;2023-12-20T13:59:24;7.13;;;4.25;;
68455;SDS011;55437;55.046;38.838;2023-12-20T14:01:51;12.32;;;6.50;;
68455;SDS011;55437;55.046;38.838;2023-12-20T14:04:17;57.55;;;31.45;;
68455;SDS011;55437;55.046;38.838;2023-12-20T14:06:43;132.85;;;82.25;;
68455;SDS011;55437;55.046;38.838;2023-12-20T14:09:09;46.88;;;27.58;;
68455;SDS011;55437;55.046;38.838;2023-12-20T14:11:38;38.67;;;22.88;;
68455;SDS011;55437;55.046;38.838;2023-12-20T14:14:07;31.75;;;18.63;;
68455;SDS011;55437;55.046;38.838;2023-12-20T14:16:34;17.70;;;8.73;;
68455;SDS011;55437;55.046;38.838;2023-12-20T14:19:00;6.30;;;2.92;;
68455;SDS011;55437;55.046;38.838;2023-12-20T14:21:28;10.05;;;4.75;;
68455;SDS011;55437;55.046;38.838;2023-12-20T14:23:56;7.53;;;3.72;;
68455;SDS011;55437;55.046;38.838;2023-12-20T14:26:22;6.82;;;3.78;;
68455;SDS011;55437;55.046;38.838;2023-12-20T14:28:48;7.43;;;3.10;;
68455;SDS011;55437;55.046;38.838;2023-12-20T14:31:14;6.80;;;3.72;;
68455;SDS011;55437;55.046;38.838;2023-12-20T14:33:40;6.88;;;3.90;;
68455;SDS011;55437;55.046;38.838;2023-12-20T14:36:07;6.82;;;3.00;;
68455;SDS011;55437;55.046;38.838;2023-12-20T14:38:34;7.43;;;3.08;;
68455;SDS011;55437;55.046;38.838;2023-12-20T14:41:00;6.60;;;3.28;;
68455;SDS011;55437;55.046;38.838;2023-12-20T14:43:29;6.57;;;3.00;;